Time;durP1;ratioP1;P1;durP2;ratioP2;P2;SDS_P1;SDS_P2;PMS_P1;PMS_P2;Temp;Humidity;BMP_temperature;BMP_pressure;BME280_temperature;BME280_humidity;BME280_pressure;Samples;Min_cycle;Max_cycle;Signal;HPM_P1;HPM_P2
2024/03/25 06:06:23;;;;;;;;;;;;;;;4.21;100.00;99128.70;1849730;76;20132;-71
2024/03/25 06:08:50;;;;;;;;;;;;;;;4.23;100.00;99137.20;1822310;77;20137;-71
2024/03/25 06:11:20;;;;;;;;;;;;;;;4.31;100.00;99127.85;1815555;77;20161;-77
2024/03/25 06:13:48;;;;;;;;;;;;;;;4.40;100.00;99124.03;1810618;78;20135;-71
2024/03/25 06:16:16;;;;;;;;;;;;;;;4.47;100.00;99113.34;1804451;78;20128;-76
2024/03/25 06:18:46;;;;;;;;;;;;;;;4.56;100.00;99118.53;1823358;78;20104;-68
2024/03/25 06:21:13;;;;;;;;;;;;;;;4.66;100.00;99112.89;1801600;78;20455;-79
2024/03/25 06:23:40;;;;;;;;;;;;;;;4.80;100.00;99113.50;1825374;78;20102;-74
2024/03/25 06:26:09;;;;;;;;;;;;;;;4.94;100.00;99116.27;1819311;78;20138;-74
2024/03/25 06:28:37;;;;;;;;;;;;;;;5.08;100.00;99107.88;1814558;78;20114;-74
2024/03/25 06:36:35;;;;;;;;;;;;;;;5.49;100.00;99113.58;1832030;78;20101;-74
2024/03/25 06:39:02;;;;;;;;;;;;;;;5.57;100.00;99114.48;1828042;78;20129;-72
2024/03/25 06:41:29;;;;;;;;;;;;;;;5.66;100.00;99116.58;1828917;77;20094;-73
2024/03/25 06:43:55;;;;;;;;;;;;;;;5.74;100.00;99121.37;1815242;78;20386;-71
2024/03/25 06:46:21;;;;;;;;;;;;;;;5.82;100.00;99122.65;1806363;78;20110;-72
2024/03/25 06:48:52;;;;;;;;;;;;;;;5.91;100.00;99125.26;1814712;78;20148;-71
2024/03/25 06:51:20;;;;;;;;;;;;;;;6.03;100.00;99116.39;1816354;77;20271;-77
2024/03/25 06:53:50;;;;;;;;;;;;;;;6.11;100.00;99116.45;1824752;77;20141;-73
2024/03/25 06:56:18;;;;;;;;;;;;;;;6.17;100.00;99113.09;1816949;78;20133;-70
2024/03/25 06:58:45;;;;;;;;;;;;;;;6.23;100.00;99114.52;1829128;78;20137;-70
2024/03/25 07:01:12;;;;;;;;;;;;;;;6.27;100.00;99118.61;1801993;78;20088;-71
2024/03/25 07:03:43;;;;;;;;;;;;;;;6.30;100.00;99122.33;1816790;77;20102;-70
2024/03/25 07:06:11;;;;;;;;;;;;;;;6.35;100.00;99122.92;1797504;77;20147;-72
2024/03/25 07:08:37;;;;;;;;;;;;;;;6.39;100.00;99120.55;1804638;78;20161;-73
2024/03/25 07:11:03;;;;;;;;;;;;;;;6.44;100.00;99128.03;1821338;79;20094;-72
2024/03/25 07:13:31;;;;;;;;;;;;;;;6.45;100.00;99120.20;1803780;79;20362;-73
2024/03/25 07:15:59;;;;;;;;;;;;;;;6.44;100.00;99118.53;1802749;79;20096;-71
2024/03/25 07:18:26;;;;;;;;;;;;;;;6.44;100.00;99122.41;1815589;79;20434;-71
2024/03/25 07:20:52;;;;;;;;;;;;;;;6.48;100.00;99126.50;1810441;77;20118;-70
2024/03/25 07:23:21;;;;;;;;;;;;;;;6.56;100.00;99128.22;1797388;77;20095;-70
2024/03/25 07:25:53;;;;;;;;;;;;;;;6.72;100.00;99123.52;1794838;77;20431;-70
2024/03/25 07:28:20;;;;;;;;;;;;;;;6.84;100.00;99126.23;1806674;77;20423;-71
2024/03/25 07:30:52;;;;;;;;;;;;;;;6.94;100.00;99126.11;1800411;79;20851;-71
2024/03/25 07:33:20;;;;;;;;;;;;;;;7.02;100.00;99124.39;1819514;78;20117;-70
2024/03/25 07:35:46;;;;;;;;;;;;;;;7.07;100.00;99121.55;1786043;77;20110;-76
2024/03/25 07:38:13;;;;;;;;;;;;;;;7.06;100.00;99116.83;1806058;77;20395;-73
2024/03/25 07:40:39;;;;;;;;;;;;;;;7.11;100.00;99113.53;1819648;79;20137;-69
2024/03/25 07:43:09;;;;;;;;;;;;;;;7.19;100.00;99116.98;1814271;79;20106;-72
2024/03/25 07:45:39;;;;;;;;;;;;;;;7.29;100.00;99119.39;1775320;79;20385;-71
2024/03/25 07:48:07;;;;;;;;;;;;;;;7.41;100.00;99125.17;1810146;79;20099;-71
2024/03/25 07:50:34;;;;;;;;;;;;;;;7.46;100.00;99126.20;1768472;80;20112;-70
2024/03/25 07:53:02;;;;;;;;;;;;;;;7.46;100.00;99114.09;1751151;82;20188;-73
2024/03/25 07:55:31;;;;;;;;;;;;;;;7.44;100.00;99111.21;1753039;82;20151;-72
2024/03/25 07:57:58;;;;;;;;;;;;;;;7.39;100.00;99114.53;1746140;81;20100;-71
2024/03/25 08:00:25;;;;;;;;;;;;;;;7.35;100.00;99115.16;1740783;82;20111;-73
2024/03/25 08:02:51;;;;;;;;;;;;;;;7.38;100.00;99118.04;1739308;82;20151;-75
2024/03/25 08:05:19;;;;;;;;;;;;;;;7.42;100.00;99129.89;1760306;81;20472;-70
2024/03/25 08:07:45;;;;;;;;;;;;;;;7.50;100.00;99138.06;1752556;81;20144;-71
2024/03/25 08:10:11;;;;;;;;;;;;;;;7.58;100.00;99133.27;1760587;81;20411;-71
2024/03/25 08:12:39;;;;;;;;;;;;;;;7.70;100.00;99128.65;1758862;81;20105;-71
2024/03/25 08:15:07;;;;;;;;;;;;;;;7.88;100.00;99127.57;1758178;81;20105;-71
2024/03/25 08:17:34;;;;;;;;;;;;;;;8.13;100.00;99130.81;1748546;81;20141;-74
2024/03/25 08:25:34;;;;;;;;;;;;;;;8.47;100.00;99126.17;1759719;81;20092;-75
2024/03/25 08:28:00;;;;;;;;;;;;;;;8.43;100.00;99130.72;1761025;81;20374;-72
2024/03/25 08:30:27;;;;;;;;;;;;;;;8.39;100.00;99131.03;1744202;81;20123;-71
2024/03/25 08:32:55;;;;;;;;;;;;;;;8.33;100.00;99129.18;1766178;81;20172;-74
2024/03/25 08:35:32;;;;;;;;;;;;;;;8.34;100.00;99130.84;1764981;81;20193;-71
2024/03/25 08:37:59;;;;;;;;;;;;;;;8.36;100.00;99129.45;1764047;81;20106;-71
2024/03/25 08:40:26;;;;;;;;;;;;;;;8.42;100.00;99128.22;1744082;81;20154;-73
2024/03/25 08:42:53;;;;;;;;;;;;;;;8.44;100.00;99125.90;1759718;81;20372;-71
2024/03/25 08:45:21;;;;;;;;;;;;;;;8.50;100.00;99125.98;1740701;81;20105;-74
2024/03/25 08:47:49;;;;;;;;;;;;;;;8.60;100.00;99118.01;1771951;80;20127;-74
2024/03/25 08:50:20;;;;;;;;;;;;;;;8.65;100.00;99121.98;1775718;80;20124;-71
2024/03/25 08:52:47;;;;;;;;;;;;;;;8.67;100.00;99125.78;1747551;80;20139;-74
2024/03/25 08:55:16;;;;;;;;;;;;;;;8.67;100.00;99121.42;1776554;80;20131;-70
2024/03/25 08:57:42;;;;;;;;;;;;;;;8.68;100.00;99126.98;1772938;80;20454;-74
2024/03/25 09:00:11;;;;;;;;;;;;;;;8.68;100.00;99128.75;1766651;80;20125;-73
2024/03/25 09:02:38;;;;;;;;;;;;;;;8.68;100.00;99138.66;1784998;80;20093;-74
2024/03/25 09:05:07;;;;;;;;;;;;;;;8.73;100.00;99141.44;1780589;80;20111;-71
2024/03/25 09:07:34;;;;;;;;;;;;;;;8.76;100.00;99149.87;1773639;80;20405;-72
2024/03/25 09:12:42;;;;;;;;;;;;;;;8.73;100.00;99146.16;1712031;80;20137;-72
2024/03/25 09:15:10;;;;;;;;;;;;;;;8.72;100.00;99141.07;1765411;80;20141;-71
2024/03/25 09:17:37;;;;;;;;;;;;;;;8.67;100.00;99151.73;1770163;80;20136;-72
2024/03/25 09:20:18;;;;;;;;;;;;;;;8.66;100.00;99153.50;1781571;80;20129;-77
2024/03/25 09:22:48;;;;;;;;;;;;;;;8.66;100.00;99148.30;1773502;80;20144;-71
2024/03/25 09:25:17;;;;;;;;;;;;;;;8.68;100.00;99145.62;1770651;80;20126;-75
2024/03/25 09:27:48;;;;;;;;;;;;;;;8.73;100.00;99142.27;1769736;80;20100;-72
2024/03/25 09:30:14;;;;;;;;;;;;;;;8.78;100.00;99149.31;1781870;80;20135;-71
2024/03/25 09:32:47;;;;;;;;;;;;;;;8.81;100.00;99148.25;1776735;80;20177;-74
2024/03/25 09:35:11;;;;;;;;;;;;;;;8.90;100.00;99155.00;1777716;80;20122;-70
2024/03/25 09:37:38;;;;;;;;;;;;;;;9.01;100.00;99146.54;1775079;80;20916;-76
2024/03/25 09:40:06;;;;;;;;;;;;;;;9.04;100.00;99154.14;1769944;80;20157;-71
2024/03/25 09:42:45;;;;;;;;;;;;;;;9.05;100.00;99141.98;1779846;80;20155;-71
2024/03/25 09:45:12;;;;;;;;;;;;;;;9.04;100.00;99142.45;1795507;80;20143;-73
2024/03/25 09:47:39;;;;;;;;;;;;;;;9.08;100.00;99150.41;1784562;80;20139;-79
2024/03/25 09:50:08;;;;;;;;;;;;;;;9.14;100.00;99142.23;1778281;80;20146;-70
2024/03/25 09:52:34;;;;;;;;;;;;;;;9.24;100.00;99137.25;1771608;80;20114;-74
2024/03/25 09:55:02;;;;;;;;;;;;;;;9.28;100.00;99146.52;1775552;80;20112;-73
2024/03/25 09:57:44;;;;;;;;;;;;;;;9.25;100.00;99149.31;1772398;80;20106;-76
2024/03/25 10:00:18;;;;;;;;;;;;;;;9.22;100.00;99149.04;1696592;83;20164;-74
2024/03/25 10:02:46;;;;;;;;;;;;;;;9.21;100.00;99141.34;1759102;80;20125;-77
2024/03/25 10:05:12;;;;;;;;;;;;;;;9.24;100.00;99141.98;1775100;80;20124;-70
2024/03/25 10:07:41;;;;;;;;;;;;;;;9.25;100.00;99147.55;1781158;80;20105;-71
2024/03/25 10:10:08;;;;;;;;;;;;;;;9.23;100.00;99149.41;1772971;80;20120;-69
2024/03/25 10:12:39;;;;;;;;;;;;;;;9.14;98.14;99144.83;1775211;80;20161;-71
2024/03/25 10:15:06;;;;;;;;;;;;;;;9.03;98.82;99147.27;1768965;80;20511;-72
2024/03/25 10:17:34;;;;;;;;;;;;;;;8.94;100.00;99146.09;1779390;80;20126;-69
2024/03/25 10:20:03;;;;;;;;;;;;;;;8.89;92.68;99133.87;1776061;80;20918;-71
2024/03/25 10:22:31;;;;;;;;;;;;;;;8.90;89.93;99135.53;1754283;80;20125;-73
2024/03/25 10:25:05;;;;;;;;;;;;;;;8.95;87.43;99137.38;1768480;80;20158;-75
2024/03/25 10:27:29;;;;;;;;;;;;;;;8.99;87.80;99124.56;1781965;80;20104;-77
2024/03/25 10:29:56;;;;;;;;;;;;;;;9.09;86.25;99124.81;1765509;80;20109;-73
2024/03/25 10:32:24;;;;;;;;;;;;;;;9.11;86.72;99119.06;1772509;80;20384;-71
2024/03/25 10:34:51;;;;;;;;;;;;;;;9.17;84.99;99134.25;1776549;80;20154;-72
2024/03/25 10:37:19;;;;;;;;;;;;;;;9.18;84.45;99122.09;1776706;80;20378;-73
2024/03/25 10:39:52;;;;;;;;;;;;;;;9.15;84.09;99110.14;1795491;80;20398;-72
2024/03/25 10:42:27;;;;;;;;;;;;;;;9.13;83.35;99117.20;1782742;80;20197;-70
2024/03/25 10:45:01;;;;;;;;;;;;;;;9.10;82.00;99108.30;1771846;80;20098;-71
2024/03/25 10:47:41;;;;;;;;;;;;;;;9.09;82.02;99118.79;1778122;80;20107;-83
2024/03/25 10:50:13;;;;;;;;;;;;;;;9.08;81.13;99107.56;1782062;80;20132;-74
2024/03/25 10:52:43;;;;;;;;;;;;;;;9.11;81.14;99100.05;1782381;80;20117;-78
2024/03/25 10:55:10;;;;;;;;;;;;;;;9.09;82.36;99096.25;1788505;80;20135;-75
2024/03/25 10:57:38;;;;;;;;;;;;;;;9.09;82.42;99094.95;1793801;80;20382;-73
2024/03/25 11:00:08;;;;;;;;;;;;;;;9.08;82.31;99088.55;1781179;80;20185;-72
2024/03/25 11:02:36;;;;;;;;;;;;;;;9.05;82.15;99085.69;1764488;80;20164;-70
2024/03/25 11:05:03;;;;;;;;;;;;;;;9.04;83.68;99085.32;1772395;80;20129;-73
2024/03/25 11:07:32;;;;;;;;;;;;;;;9.03;82.64;99083.66;1772239;80;20124;-70
2024/03/25 11:10:06;;;;;;;;;;;;;;;9.03;82.80;99081.06;1776450;80;20100;-70
2024/03/25 11:12:35;;;;;;;;;;;;;;;9.06;83.75;99082.16;1759830;80;20146;-69
2024/03/25 11:15:03;;;;;;;;;;;;;;;9.09;85.00;99078.06;1716660;81;20166;-70
2024/03/25 11:17:32;;;;;;;;;;;;;;;9.12;84.54;99082.23;1751251;80;20170;-70
2024/03/25 11:20:12;;;;;;;;;;;;;;;9.07;84.41;99079.10;1753786;81;20163;-68
2024/03/25 11:22:52;;;;;;;;;;;;;;;9.04;84.71;99082.73;1750697;81;20103;-68
2024/03/25 11:25:20;;;;;;;;;;;;;;;9.08;84.47;99081.59;1758296;81;20099;-68
2024/03/25 11:27:47;;;;;;;;;;;;;;;9.08;83.91;99075.11;1750866;81;20154;-68
2024/03/25 11:30:16;;;;;;;;;;;;;;;9.03;84.03;99081.06;1755224;81;20100;-69
2024/03/25 11:32:48;;;;;;;;;;;;;;;8.99;84.50;99083.48;1748510;81;20150;-69
2024/03/25 11:35:14;;;;;;;;;;;;;;;9.00;85.09;99082.09;1755737;81;20111;-72
2024/03/25 11:37:42;;;;;;;;;;;;;;;9.03;85.53;99081.06;1761678;81;20124;-70
2024/03/25 11:40:12;;;;;;;;;;;;;;;9.03;86.51;99085.79;1766239;81;20108;-72
2024/03/25 11:42:43;;;;;;;;;;;;;;;9.06;85.39;99085.22;1758901;81;20146;-69
2024/03/25 11:45:20;;;;;;;;;;;;;;;9.08;84.18;99082.89;1747160;81;20189;-69
2024/03/25 11:47:48;;;;;;;;;;;;;;;9.09;82.09;99077.23;1762412;81;20139;-69
2024/03/25 11:50:16;;;;;;;;;;;;;;;9.07;82.70;99083.00;1763963;81;20159;-70
2024/03/25 11:52:45;;;;;;;;;;;;;;;9.06;83.06;99078.27;1759467;81;20171;-72
2024/03/25 11:55:20;;;;;;;;;;;;;;;9.12;83.17;99082.23;1753783;81;20167;-69
2024/03/25 11:57:56;;;;;;;;;;;;;;;9.18;84.37;99080.07;1766481;81;20110;-70
2024/03/25 12:00:24;;;;;;;;;;;;;;;9.26;82.75;99076.48;1755777;81;20099;-69
2024/03/25 12:02:52;;;;;;;;;;;;;;;9.31;80.67;99074.88;1754602;81;20104;-70
2024/03/25 12:05:18;;;;;;;;;;;;;;;9.30;79.27;99066.25;1754801;81;20404;-69
2024/03/25 12:07:45;;;;;;;;;;;;;;;9.25;80.10;99073.98;1757481;81;20095;-70
2024/03/25 12:12:57;;;;;;;;;;;;;;;9.10;81.02;99075.84;1777866;80;20756;-70
2024/03/25 12:15:26;;;;;;;;;;;;;;;9.07;81.89;99073.91;1773216;80;20154;-70
2024/03/25 12:17:52;;;;;;;;;;;;;;;9.03;81.03;99068.08;1778454;80;20157;-72
2024/03/25 12:20:21;;;;;;;;;;;;;;;9.02;80.68;99073.73;1773273;80;20134;-71
2024/03/25 12:22:48;;;;;;;;;;;;;;;9.03;81.38;99070.67;1775830;80;20141;-77
2024/03/25 12:25:17;;;;;;;;;;;;;;;9.03;81.89;99068.08;1777764;80;20387;-70
2024/03/25 12:27:45;;;;;;;;;;;;;;;9.03;81.20;99064.19;1777942;80;20106;-70
2024/03/25 12:30:12;;;;;;;;;;;;;;;8.96;80.31;99065.05;1774951;80;20177;-69
2024/03/25 12:32:43;;;;;;;;;;;;;;;8.89;80.56;99068.96;1777393;80;20146;-69
2024/03/25 12:35:14;;;;;;;;;;;;;;;8.86;80.44;99065.27;1777220;80;20092;-70
2024/03/25 12:37:41;;;;;;;;;;;;;;;8.82;80.17;99062.96;1774243;80;20389;-72
2024/03/25 12:40:09;;;;;;;;;;;;;;;8.79;80.27;99072.27;1773804;80;20135;-73
2024/03/25 12:42:39;;;;;;;;;;;;;;;8.77;80.45;99071.53;1776831;80;20112;-73
2024/03/25 12:45:07;;;;;;;;;;;;;;;8.73;81.52;99067.47;1787062;80;20436;-72
2024/03/25 12:47:34;;;;;;;;;;;;;;;8.71;80.41;99066.27;1779988;80;20129;-73
2024/03/25 12:50:00;;;;;;;;;;;;;;;8.66;80.09;99068.32;1767226;80;20114;-73
2024/03/25 12:52:27;;;;;;;;;;;;;;;8.63;80.90;99064.16;1781468;80;20170;-73
2024/03/25 12:54:54;;;;;;;;;;;;;;;8.62;81.40;99061.66;1779990;80;20143;-71
2024/03/25 12:57:20;;;;;;;;;;;;;;;8.60;81.70;99064.34;1775490;80;20467;-71
2024/03/25 12:59:46;;;;;;;;;;;;;;;8.59;81.97;99069.63;1772783;80;20177;-74
2024/03/25 13:02:14;;;;;;;;;;;;;;;8.56;81.65;99060.28;1766570;80;20106;-71
2024/03/25 13:04:44;;;;;;;;;;;;;;;8.54;82.17;99064.73;1765411;80;20169;-75
2024/03/25 13:07:10;;;;;;;;;;;;;;;8.55;82.89;99061.67;1778174;80;20121;-74
2024/03/25 13:09:37;;;;;;;;;;;;;;;8.54;82.19;99058.25;1765121;80;20122;-75
2024/03/25 13:12:03;;;;;;;;;;;;;;;8.56;83.33;99055.55;1778351;80;20125;-74
2024/03/25 13:14:30;;;;;;;;;;;;;;;8.57;83.18;99058.05;1774917;80;20150;-70
2024/03/25 13:16:56;;;;;;;;;;;;;;;8.60;83.76;99053.97;1788007;80;20100;-70
2024/03/25 13:19:22;;;;;;;;;;;;;;;8.61;82.94;99049.14;1794112;80;20115;-71
2024/03/25 13:21:49;;;;;;;;;;;;;;;8.61;82.69;99053.04;1774913;80;20142;-70
2024/03/25 13:24:17;;;;;;;;;;;;;;;8.58;82.40;99052.40;1774603;80;20534;-71
2024/03/25 13:26:45;;;;;;;;;;;;;;;8.56;82.23;99050.36;1777054;80;20175;-72
2024/03/25 13:29:11;;;;;;;;;;;;;;;8.54;81.97;99052.22;1775548;80;20161;-70
2024/03/25 13:31:40;;;;;;;;;;;;;;;8.51;81.81;99055.01;1771967;80;20157;-72
2024/03/25 13:34:06;;;;;;;;;;;;;;;8.47;81.40;99048.34;1782033;80;20532;-70
2024/03/25 13:36:37;;;;;;;;;;;;;;;8.45;81.32;99047.61;1787503;80;20142;-72
2024/03/25 13:39:04;;;;;;;;;;;;;;;8.41;81.26;99055.22;1770519;80;20134;-72
2024/03/25 13:41:31;;;;;;;;;;;;;;;8.37;81.78;99049.41;1770719;80;20177;-70
2024/03/25 13:43:59;;;;;;;;;;;;;;;8.37;82.33;99043.39;1770889;80;20158;-72
2024/03/25 13:46:30;;;;;;;;;;;;;;;8.38;83.72;99039.41;1768938;80;20126;-75
2024/03/25 13:49:15;;;;;;;;;;;;;;;8.42;84.38;99040.85;1778197;80;20116;-75
2024/03/25 13:52:06;;;;;;;;;;;;;;;8.48;85.45;99040.94;1778557;80;20225;-72
2024/03/25 13:54:33;;;;;;;;;;;;;;;8.52;85.62;99035.92;1768749;80;20432;-73
2024/03/25 13:57:00;;;;;;;;;;;;;;;8.51;82.69;99042.87;1767845;80;20155;-72
2024/03/25 13:59:26;;;;;;;;;;;;;;;8.45;81.04;99038.06;1777931;80;20121;-73
2024/03/25 14:01:53;;;;;;;;;;;;;;;8.40;81.35;99043.20;1778287;80;20176;-73
2024/03/25 14:04:21;;;;;;;;;;;;;;;8.37;82.69;99040.80;1771362;80;20114;-72
2024/03/25 14:06:49;;;;;;;;;;;;;;;8.34;82.72;99032.75;1775105;80;20110;-70
2024/03/25 14:09:28;;;;;;;;;;;;;;;8.32;81.85;99044.95;1746944;81;20123;-72
2024/03/25 14:11:55;;;;;;;;;;;;;;;8.28;80.04;99039.11;1748574;81;20129;-73
2024/03/25 14:14:21;;;;;;;;;;;;;;;8.24;80.05;99036.80;1749262;81;20099;-73
2024/03/25 14:16:48;;;;;;;;;;;;;;;8.21;79.87;99039.59;1748165;81;20159;-72
2024/03/25 14:19:15;;;;;;;;;;;;;;;8.14;82.74;99047.38;1743833;81;20401;-76
2024/03/25 14:21:42;;;;;;;;;;;;;;;8.02;85.97;99042.47;1748291;81;20144;-70
2024/03/25 14:24:10;;;;;;;;;;;;;;;7.90;85.70;99037.59;1753028;81;20144;-78
2024/03/25 14:26:36;;;;;;;;;;;;;;;7.83;86.99;99035.47;1748145;81;20138;-71
2024/03/25 14:29:03;;;;;;;;;;;;;;;7.75;86.96;99034.63;1744683;81;20163;-72
2024/03/25 14:31:30;;;;;;;;;;;;;;;7.72;86.83;99039.16;1739333;81;20139;-70
2024/03/25 14:33:57;;;;;;;;;;;;;;;7.69;84.81;99041.47;1749899;81;20382;-70
2024/03/25 14:36:26;;;;;;;;;;;;;;;7.65;84.24;99043.41;1764197;81;20126;-72
2024/03/25 14:38:52;;;;;;;;;;;;;;;7.61;82.83;99045.81;1759833;81;20453;-70
2024/03/25 14:41:20;;;;;;;;;;;;;;;7.56;82.50;99044.45;1748009;81;20100;-72
2024/03/25 14:43:47;;;;;;;;;;;;;;;7.48;82.30;99041.47;1750405;81;20170;-72
2024/03/25 14:46:14;;;;;;;;;;;;;;;7.44;82.87;99039.98;1760139;81;20386;-68
2024/03/25 14:48:41;;;;;;;;;;;;;;;7.41;83.34;99047.47;1751534;82;20198;-71
2024/03/25 14:51:08;;;;;;;;;;;;;;;7.34;83.10;99050.05;1757677;80;20138;-70
2024/03/25 14:53:34;;;;;;;;;;;;;;;7.27;83.64;99054.75;1762074;79;20103;-70
2024/03/25 14:56:00;;;;;;;;;;;;;;;7.21;84.76;99058.98;1762993;80;20100;-74
2024/03/25 14:58:27;;;;;;;;;;;;;;;7.17;87.51;99057.98;1756006;81;20194;-69
2024/03/25 15:00:53;;;;;;;;;;;;;;;7.09;88.48;99061.01;1753747;81;20457;-71
2024/03/25 15:03:21;;;;;;;;;;;;;;;7.00;88.76;99052.47;1750867;81;20249;-70
